sensor_id;sensor_type;location;lat;lon;timestamp;pressure;altitude;pressure_sealevel;temperature;humidity
26657;BME280;14279;50.010;8.260;2024-01-10T00:00:49;101636.25;;;-2.12;43.35
26657;BME280;14279;50.010;8.260;2024-01-10T00:03:14;101638.72;;;-2.15;43.07
26657;BME280;14279;50.010;8.260;2024-01-10T00:05:39;101631.00;;;-2.16;43.31
26657;BME280;14279;50.010;8.260;2024-01-10T00:08:04;101623.41;;;-2.15;43.35
26657;BME280;14279;50.010;8.260;2024-01-10T00:10:31;101625.09;;;-2.15;43.52
26657;BME280;14279;50.010;8.260;2024-01-10T00:12:56;101625.38;;;-2.04;43.80
26657;BME280;14279;50.010;8.260;2024-01-10T00:15:21;101627.00;;;-2.08;43.98
26657;BME280;14279;50.010;8.260;2024-01-10T00:17:47;101620.53;;;-2.27;43.45
26657;BME280;14279;50.010;8.260;2024-01-10T00:20:12;101616.59;;;-2.16;44.31
26657;BME280;14279;50.010;8.260;2024-01-10T00:22:37;101614.06;;;-2.14;44.16
26657;BME280;14279;50.010;8.260;2024-01-10T00:25:03;101611.56;;;-2.13;43.94
26657;BME280;14279;50.010;8.260;2024-01-10T00:27:29;101616.59;;;-2.16;44.48
26657;BME280;14279;50.010;8.260;2024-01-10T00:29:55;101607.91;;;-2.22;44.70
26657;BME280;14279;50.010;8.260;2024-01-10T00:32:21;101610.25;;;-2.30;44.68
26657;BME280;14279;50.010;8.260;2024-01-10T00:34:47;101612.84;;;-2.29;44.93
26657;BME280;14279;50.010;8.260;2024-01-10T00:37:12;101609.06;;;-2.43;44.85
26657;BME280;14279;50.010;8.260;2024-01-10T00:39:37;101604.00;;;-2.42;45.46
26657;BME280;14279;50.010;8.260;2024-01-10T00:42:03;101609.09;;;-2.42;45.77
26657;BME280;14279;50.010;8.260;2024-01-10T00:44:28;101603.66;;;-2.54;45.73
26657;BME280;14279;50.010;8.260;2024-01-10T00:46:53;101613.16;;;-2.48;46.12
26657;BME280;14279;50.010;8.260;2024-01-10T00:49:19;101613.00;;;-2.54;46.18
26657;BME280;14279;50.010;8.260;2024-01-10T00:51:44;101617.25;;;-2.53;46.73
26657;BME280;14279;50.010;8.260;2024-01-10T00:54:09;101613.16;;;-2.48;46.39
26657;BME280;14279;50.010;8.260;2024-01-10T00:56:34;101619.03;;;-2.51;47.01
26657;BME280;14279;50.010;8.260;2024-01-10T00:59:00;101614.00;;;-2.80;47.00
26657;BME280;14279;50.010;8.260;2024-01-10T01:01:25;101613.06;;;-2.82;47.48
26657;BME280;14279;50.010;8.260;2024-01-10T01:03:50;101608.06;;;-2.79;47.84
26657;BME280;14279;50.010;8.260;2024-01-10T01:06:15;101609.56;;;-2.85;47.97
26657;BME280;14279;50.010;8.260;2024-01-10T01:08:41;101597.22;;;-3.00;48.06
26657;BME280;14279;50.010;8.260;2024-01-10T01:11:06;101597.78;;;-3.11;48.93
26657;BME280;14279;50.010;8.260;2024-01-10T01:13:31;101609.81;;;-3.07;49.27
26657;BME280;14279;50.010;8.260;2024-01-10T01:15:57;101597.59;;;-3.17;49.39
26657;BME280;14279;50.010;8.260;2024-01-10T01:18:22;101606.22;;;-3.13;49.78
26657;BME280;14279;50.010;8.260;2024-01-10T01:20:47;101592.38;;;-3.22;50.08
26657;BME280;14279;50.010;8.260;2024-01-10T01:23:15;101600.34;;;-3.11;50.34
26657;BME280;14279;50.010;8.260;2024-01-10T01:25:40;101606.47;;;-3.04;50.19
26657;BME280;14279;50.010;8.260;2024-01-10T01:28:06;101601.06;;;-3.15;50.84
26657;BME280;14279;50.010;8.260;2024-01-10T01:30:31;101612.78;;;-3.20;50.80
26657;BME280;14279;50.010;8.260;2024-01-10T01:32:56;101608.91;;;-3.07;50.92
26657;BME280;14279;50.010;8.260;2024-01-10T01:35:22;101615.84;;;-3.03;51.35
26657;BME280;14279;50.010;8.260;2024-01-10T01:37:48;101606.56;;;-3.01;50.93
26657;BME280;14279;50.010;8.260;2024-01-10T01:40:13;101599.31;;;-3.16;50.85
26657;BME280;14279;50.010;8.260;2024-01-10T01:42:38;101608.88;;;-3.09;50.85
26657;BME280;14279;50.010;8.260;2024-01-10T01:45:04;101606.53;;;-3.03;51.18
26657;BME280;14279;50.010;8.260;2024-01-10T01:47:30;101600.91;;;-3.20;51.12
26657;BME280;14279;50.010;8.260;2024-01-10T01:49:56;101602.75;;;-3.15;51.25
26657;BME280;14279;50.010;8.260;2024-01-10T01:52:21;101604.28;;;-3.21;51.06
26657;BME280;14279;50.010;8.260;2024-01-10T01:54:47;101599.69;;;-3.33;51.70
26657;BME280;14279;50.010;8.260;2024-01-10T01:57:13;101603.28;;;-3.53;52.24
26657;BME280;14279;50.010;8.260;2024-01-10T01:59:38;101597.41;;;-3.51;52.31
26657;BME280;14279;50.010;8.260;2024-01-10T02:02:04;101597.50;;;-3.48;52.51
26657;BME280;14279;50.010;8.260;2024-01-10T02:04:30;101599.47;;;-3.66;52.62
26657;BME280;14279;50.010;8.260;2024-01-10T02:06:56;101600.44;;;-3.63;53.48
26657;BME280;14279;50.010;8.260;2024-01-10T02:09:21;101598.25;;;-3.78;53.18
26657;BME280;14279;50.010;8.260;2024-01-10T02:11:46;101595.72;;;-3.78;53.31
26657;BME280;14279;50.010;8.260;2024-01-10T02:14:12;101593.00;;;-3.56;53.14
26657;BME280;14279;50.010;8.260;2024-01-10T02:16:38;101593.72;;;-3.60;53.43
26657;BME280;14279;50.010;8.260;2024-01-10T02:19:17;101591.50;;;-3.50;53.39
26657;BME280;14279;50.010;8.260;2024-01-10T02:21:43;101588.19;;;-3.47;53.52
26657;BME280;14279;50.010;8.260;2024-01-10T02:24:08;101589.00;;;-3.48;53.36
26657;BME280;14279;50.010;8.260;2024-01-10T02:26:33;101591.97;;;-3.62;53.72
26657;BME280;14279;50.010;8.260;2024-01-10T02:28:58;101585.28;;;-3.58;53.62
26657;BME280;14279;50.010;8.260;2024-01-10T02:31:24;101593.69;;;-3.62;53.83
26657;BME280;14279;50.010;8.260;2024-01-10T02:33:52;101588.41;;;-3.67;53.70
26657;BME280;14279;50.010;8.260;2024-01-10T02:36:17;101593.00;;;-3.56;53.72
26657;BME280;14279;50.010;8.260;2024-01-10T02:38:43;101588.75;;;-3.56;53.82
26657;BME280;14279;50.010;8.260;2024-01-10T02:41:08;101586.78;;;-3.65;54.31
26657;BME280;14279;50.010;8.260;2024-01-10T02:43:33;101591.13;;;-3.62;53.92
26657;BME280;14279;50.010;8.260;2024-01-10T02:45:58;101583.72;;;-3.54;53.88
26657;BME280;14279;50.010;8.260;2024-01-10T02:48:24;101580.31;;;-3.55;53.34
26657;BME280;14279;50.010;8.260;2024-01-10T02:50:50;101580.53;;;-3.47;53.75
26657;BME280;14279;50.010;8.260;2024-01-10T02:53:15;101588.03;;;-3.52;53.46
26657;BME280;14279;50.010;8.260;2024-01-10T02:55:41;101582.81;;;-3.56;53.14
26657;BME280;14279;50.010;8.260;2024-01-10T02:58:06;101579.34;;;-3.58;53.26
26657;BME280;14279;50.010;8.260;2024-01-10T03:00:32;101582.13;;;-3.51;53.46
26657;BME280;14279;50.010;8.260;2024-01-10T03:02:57;101585.63;;;-3.47;53.17
26657;BME280;14279;50.010;8.260;2024-01-10T03:05:22;101582.56;;;-3.37;53.16
26657;BME280;14279;50.010;8.260;2024-01-10T03:07:48;101570.28;;;-3.50;52.81
26657;BME280;14279;50.010;8.260;2024-01-10T03:10:13;101569.41;;;-3.51;52.75
26657;BME280;14279;50.010;8.260;2024-01-10T03:12:38;101562.69;;;-3.49;52.71
26657;BME280;14279;50.010;8.260;2024-01-10T03:15:05;101561.63;;;-3.55;52.65
26657;BME280;14279;50.010;8.260;2024-01-10T03:17:31;101555.44;;;-3.64;52.48
26657;BME280;14279;50.010;8.260;2024-01-10T03:19:59;101558.19;;;-3.57;52.76
26657;BME280;14279;50.010;8.260;2024-01-10T03:22:24;101562.97;;;-3.67;52.76
26657;BME280;14279;50.010;8.260;2024-01-10T03:24:49;101561.34;;;-3.65;52.81
26657;BME280;14279;50.010;8.260;2024-01-10T03:27:14;101563.16;;;-3.60;53.01
26657;BME280;14279;50.010;8.260;2024-01-10T03:29:40;101553.91;;;-3.58;52.95
26657;BME280;14279;50.010;8.260;2024-01-10T03:32:05;101551.50;;;-3.54;53.26
26657;BME280;14279;50.010;8.260;2024-01-10T03:34:31;101554.94;;;-3.52;53.03
26657;BME280;14279;50.010;8.260;2024-01-10T03:36:56;101555.03;;;-3.49;52.81
26657;BME280;14279;50.010;8.260;2024-01-10T03:39:22;101551.25;;;-3.62;53.07
26657;BME280;14279;50.010;8.260;2024-01-10T03:41:47;101558.84;;;-3.63;53.13
26657;BME280;14279;50.010;8.260;2024-01-10T03:44:13;101554.91;;;-3.53;53.24
26657;BME280;14279;50.010;8.260;2024-01-10T03:46:39;101556.78;;;-3.48;52.91
26657;BME280;14279;50.010;8.260;2024-01-10T03:49:04;101554.19;;;-3.49;52.94
26657;BME280;14279;50.010;8.260;2024-01-10T03:51:29;101560.63;;;-3.60;52.91
26657;BME280;14279;50.010;8.260;2024-01-10T03:53:55;101548.56;;;-3.66;52.89
26657;BME280;14279;50.010;8.260;2024-01-10T03:56:20;101556.44;;;-3.58;53.26
26657;BME280;14279;50.010;8.260;2024-01-10T03:58:46;101558.66;;;-3.69;52.73
26657;BME280;14279;50.010;8.260;2024-01-10T04:01:13;101544.63;;;-3.56;52.77
26657;BME280;14279;50.010;8.260;2024-01-10T04:03:39;101551.28;;;-3.60;52.41
26657;BME280;14279;50.010;8.260;2024-01-10T04:06:07;101550.78;;;-3.50;52.80
26657;BME280;14279;50.010;8.260;2024-01-10T04:08:32;101553.22;;;-3.53;52.56
26657;BME280;14279;50.010;8.260;2024-01-10T04:10:58;101549.94;;;-3.50;52.62
26657;BME280;14279;50.010;8.260;2024-01-10T04:13:23;101552.41;;;-3.52;52.48
26657;BME280;14279;50.010;8.260;2024-01-10T04:15:48;101548.22;;;-3.50;52.54
26657;BME280;14279;50.010;8.260;2024-01-10T04:18:14;101548.19;;;-3.51;52.68
26657;BME280;14279;50.010;8.260;2024-01-10T04:20:39;101552.84;;;-3.38;52.35
26657;BME280;14279;50.010;8.260;2024-01-10T04:23:05;101555.41;;;-3.36;52.63
26657;BME280;14279;50.010;8.260;2024-01-10T04:25:30;101556.25;;;-3.37;52.35
26657;BME280;14279;50.010;8.260;2024-01-10T04:27:57;101548.69;;;-3.34;52.78
26657;BME280;14279;50.010;8.260;2024-01-10T04:30:23;101548.75;;;-3.33;52.48
26657;BME280;14279;50.010;8.260;2024-01-10T04:32:48;101549.56;;;-3.34;52.02
26657;BME280;14279;50.010;8.260;2024-01-10T04:35:13;101548.75;;;-3.33;52.27
26657;BME280;14279;50.010;8.260;2024-01-10T04:37:39;101552.47;;;-3.21;52.31
26657;BME280;14279;50.010;8.260;2024-01-10T04:40:06;101552.38;;;-3.24;52.16
26657;BME280;14279;50.010;8.260;2024-01-10T04:42:31;101546.19;;;-3.33;51.93
26657;BME280;14279;50.010;8.260;2024-01-10T04:44:56;101548.19;;;-3.22;51.96
26657;BME280;14279;50.010;8.260;2024-01-10T04:47:22;101556.00;;;-3.18;52.10
26657;BME280;14279;50.010;8.260;2024-01-10T04:49:47;101547.56;;;-3.15;52.28
26657;BME280;14279;50.010;8.260;2024-01-10T04:52:12;101552.44;;;-3.23;52.15
26657;BME280;14279;50.010;8.260;2024-01-10T04:54:37;101552.66;;;-3.15;52.00
26657;BME280;14279;50.010;8.260;2024-01-10T04:57:04;101552.78;;;-3.10;51.76
26657;BME280;14279;50.010;8.260;2024-01-10T04:59:29;101555.47;;;-3.06;51.96
26657;BME280;14279;50.010;8.260;2024-01-10T05:01:54;101558.38;;;-2.93;51.96
26657;BME280;14279;50.010;8.260;2024-01-10T05:04:20;101555.78;;;-2.95;51.57
26657;BME280;14279;50.010;8.260;2024-01-10T05:06:47;101558.34;;;-2.95;51.96
26657;BME280;14279;50.010;8.260;2024-01-10T05:09:12;101558.28;;;-2.96;51.82
26657;BME280;14279;50.010;8.260;2024-01-10T05:11:39;101554.00;;;-2.97;51.38
26657;BME280;14279;50.010;8.260;2024-01-10T05:14:04;101554.75;;;-3.02;51.65
26657;BME280;14279;50.010;8.260;2024-01-10T05:16:29;101557.38;;;-2.98;51.55
26657;BME280;14279;50.010;8.260;2024-01-10T05:18:55;101556.63;;;-2.94;51.33
26657;BME280;14279;50.010;8.260;2024-01-10T05:21:20;101555.47;;;-3.06;51.43
26657;BME280;14279;50.010;8.260;2024-01-10T05:23:46;101554.97;;;-2.94;51.32
26657;BME280;14279;50.010;8.260;2024-01-10T05:26:11;101554.09;;;-2.94;51.24
26657;BME280;14279;50.010;8.260;2024-01-10T05:28:36;101552.50;;;-2.91;51.29
26657;BME280;14279;50.010;8.260;2024-01-10T05:31:02;101551.34;;;-3.00;51.04
26657;BME280;14279;50.010;8.260;2024-01-10T05:33:27;101546.97;;;-3.06;51.51
26657;BME280;14279;50.010;8.260;2024-01-10T05:35:53;101559.91;;;-2.98;51.84
26657;BME280;14279;50.010;8.260;2024-01-10T05:38:18;101550.59;;;-2.98;51.77
26657;BME280;14279;50.010;8.260;2024-01-10T05:40:44;101542.16;;;-2.95;51.40
26657;BME280;14279;50.010;8.260;2024-01-10T05:43:09;101547.06;;;-3.03;51.52
26657;BME280;14279;50.010;8.260;2024-01-10T05:45:38;101547.41;;;-2.91;51.48
26657;BME280;14279;50.010;8.260;2024-01-10T05:48:03;101548.63;;;-2.78;50.91
26657;BME280;14279;50.010;8.260;2024-01-10T05:50:29;101552.03;;;-2.77;50.73
26657;BME280;14279;50.010;8.260;2024-01-10T05:52:54;101548.44;;;-2.84;50.69
26657;BME280;14279;50.010;8.260;2024-01-10T05:55:20;101548.25;;;-2.92;51.49
26657;BME280;14279;50.010;8.260;2024-01-10T05:57:45;101544.88;;;-2.91;51.04
26657;BME280;14279;50.010;8.260;2024-01-10T06:00:11;101547.41;;;-2.91;51.34
26657;BME280;14279;50.010;8.260;2024-01-10T06:02:37;101541.13;;;-3.02;51.55
26657;BME280;14279;50.010;8.260;2024-01-10T06:05:06;101540.19;;;-3.06;51.52
26657;BME280;14279;50.010;8.260;2024-01-10T06:07:31;101549.38;;;-3.11;51.80
26657;BME280;14279;50.010;8.260;2024-01-10T06:09:56;101547.34;;;-3.23;52.03
26657;BME280;14279;50.010;8.260;2024-01-10T06:12:22;101542.44;;;-3.17;52.06
26657;BME280;14279;50.010;8.260;2024-01-10T06:14:47;101541.78;;;-3.09;51.74
26657;BME280;14279;50.010;8.260;2024-01-10T06:17:12;101544.41;;;-3.06;51.85
26657;BME280;14279;50.010;8.260;2024-01-10T06:19:38;101546.19;;;-3.04;51.30
26657;BME280;14279;50.010;8.260;2024-01-10T06:22:04;101545.44;;;-2.99;51.97
26657;BME280;14279;50.010;8.260;2024-01-10T06:24:30;101552.84;;;-3.09;51.70
26657;BME280;14279;50.010;8.260;2024-01-10T06:26:55;101550.47;;;-3.03;51.52
26657;BME280;14279;50.010;8.260;2024-01-10T06:29:20;101550.50;;;-3.01;51.77
26657;BME280;14279;50.010;8.260;2024-01-10T06:31:48;101550.41;;;-3.04;51.60
26657;BME280;14279;50.010;8.260;2024-01-10T06:34:13;101545.38;;;-3.03;51.90
26657;BME280;14279;50.010;8.260;2024-01-10T06:36:39;101556.34;;;-3.05;51.93
26657;BME280;14279;50.010;8.260;2024-01-10T06:39:04;101554.41;;;-3.12;52.28
26657;BME280;14279;50.010;8.260;2024-01-10T06:41:32;101550.09;;;-3.15;51.96
26657;BME280;14279;50.010;8.260;2024-01-10T06:44:01;101548.97;;;-3.25;52.35
26657;BME280;14279;50.010;8.260;2024-01-10T06:46:35;101557.81;;;-2.83;54.18
26657;BME280;14279;50.010;8.260;2024-01-10T06:49:01;101549.31;;;-2.83;52.28
26657;BME280;14279;50.010;8.260;2024-01-10T06:51:26;101555.31;;;-2.81;51.74
26657;BME280;14279;50.010;8.260;2024-01-10T06:53:52;101551.88;;;-2.51;52.18
26657;BME280;14279;50.010;8.260;2024-01-10T06:56:18;101560.63;;;-2.43;52.08
26657;BME280;14279;50.010;8.260;2024-01-10T06:58:43;101553.00;;;-2.40;51.00
26657;BME280;14279;50.010;8.260;2024-01-10T07:01:12;101562.63;;;-2.63;52.66
26657;BME280;14279;50.010;8.260;2024-01-10T07:03:41;101553.41;;;-2.58;51.83
26657;BME280;14279;50.010;8.260;2024-01-10T07:06:07;101558.25;;;-2.98;52.11
26657;BME280;14279;50.010;8.260;2024-01-10T07:08:33;101557.41;;;-2.68;52.90
26657;BME280;14279;50.010;8.260;2024-01-10T07:10:58;101563.91;;;-2.47;51.30
26657;BME280;14279;50.010;8.260;2024-01-10T07:13:23;101564.44;;;-2.59;51.04
26657;BME280;14279;50.010;8.260;2024-01-10T07:15:49;101558.03;;;-2.75;51.24
26657;BME280;14279;50.010;8.260;2024-01-10T07:18:16;101564.38;;;-2.61;51.68
26657;BME280;14279;50.010;8.260;2024-01-10T07:20:41;101574.22;;;-2.43;51.29
26657;BME280;14279;50.010;8.260;2024-01-10T07:23:06;101571.75;;;-2.39;50.83
26657;BME280;14279;50.010;8.260;2024-01-10T07:25:32;101575.38;;;-2.62;51.27
26657;BME280;14279;50.010;8.260;2024-01-10T07:27:59;101576.22;;;-2.63;51.33
26657;BME280;14279;50.010;8.260;2024-01-10T07:30:24;101577.09;;;-2.62;51.73
26657;BME280;14279;50.010;8.260;2024-01-10T07:32:49;101586.34;;;-2.66;51.83
26657;BME280;14279;50.010;8.260;2024-01-10T07:35:15;101588.50;;;-2.48;51.19
26657;BME280;14279;50.010;8.260;2024-01-10T07:37:41;101585.50;;;-2.34;51.14
26657;BME280;14279;50.010;8.260;2024-01-10T07:40:08;101585.97;;;-2.78;51.16
26657;BME280;14279;50.010;8.260;2024-01-10T07:42:34;101586.97;;;-2.73;51.70
26657;BME280;14279;50.010;8.260;2024-01-10T07:45:00;101588.44;;;-2.51;51.52
26657;BME280;14279;50.010;8.260;2024-01-10T07:47:29;101597.75;;;-2.53;51.34
26657;BME280;14279;50.010;8.260;2024-01-10T07:49:54;101594.88;;;-2.64;51.38
26657;BME280;14279;50.010;8.260;2024-01-10T07:52:19;101598.06;;;-2.40;51.46
26657;BME280;14279;50.010;8.260;2024-01-10T07:54:44;101596.38;;;-2.40;51.39
26657;BME280;14279;50.010;8.260;2024-01-10T07:57:10;101601.41;;;-2.43;51.45
26657;BME280;14279;50.010;8.260;2024-01-10T07:59:36;101600.88;;;-2.62;51.53
26657;BME280;14279;50.010;8.260;2024-01-10T08:02:01;101600.06;;;-2.61;51.88
26657;BME280;14279;50.010;8.260;2024-01-10T08:04:27;101608.19;;;-2.44;51.36
26657;BME280;14279;50.010;8.260;2024-01-10T08:06:55;101608.94;;;-2.16;51.15
26657;BME280;14279;50.010;8.260;2024-01-10T08:09:21;101616.91;;;-2.35;51.77
26657;BME280;14279;50.010;8.260;2024-01-10T08:11:47;101621.88;;;-2.09;51.87
26657;BME280;14279;50.010;8.260;2024-01-10T08:14:13;101610.84;;;-2.39;51.54
26657;BME280;14279;50.010;8.260;2024-01-10T08:16:38;101617.34;;;-2.50;51.66
26657;BME280;14279;50.010;8.260;2024-01-10T08:19:04;101613.78;;;-2.57;51.87
26657;BME280;14279;50.010;8.260;2024-01-10T08:21:29;101616.25;;;-2.59;51.72
26657;BME280;14279;50.010;8.260;2024-01-10T08:23:54;101610.94;;;-2.68;51.99
26657;BME280;14279;50.010;8.260;2024-01-10T08:26:19;101624.75;;;-2.60;52.37
26657;BME280;14279;50.010;8.260;2024-01-10T08:28:45;101620.72;;;-2.51;51.98
26657;BME280;14279;50.010;8.260;2024-01-10T08:31:10;101622.91;;;-2.64;51.85
26657;BME280;14279;50.010;8.260;2024-01-10T08:33:37;101617.78;;;-2.65;52.07
26657;BME280;14279;50.010;8.260;2024-01-10T08:36:04;101623.81;;;-2.62;51.87
26657;BME280;14279;50.010;8.260;2024-01-10T08:38:29;101628.16;;;-2.59;51.96
26657;BME280;14279;50.010;8.260;2024-01-10T08:40:55;101626.09;;;-2.42;51.96
26657;BME280;14279;50.010;8.260;2024-01-10T08:43:20;101629.91;;;-2.58;52.10
26657;BME280;14279;50.010;8.260;2024-01-10T08:45:45;101628.03;;;-2.33;51.96
26657;BME280;14279;50.010;8.260;2024-01-10T08:48:11;101629.69;;;-2.35;51.79
26657;BME280;14279;50.010;8.260;2024-01-10T08:50:38;101638.47;;;-2.24;51.61
26657;BME280;14279;50.010;8.260;2024-01-10T08:53:03;101635.44;;;-2.10;51.54
26657;BME280;14279;50.010;8.260;2024-01-10T08:55:31;101638.00;;;-2.10;51.31
26657;BME280;14279;50.010;8.260;2024-01-10T08:57:56;101641.38;;;-2.12;51.24
26657;BME280;14279;50.010;8.260;2024-01-10T09:00:22;101645.84;;;-2.03;51.34
26657;BME280;14279;50.010;8.260;2024-01-10T09:02:47;101641.53;;;-2.05;50.91
26657;BME280;14279;50.010;8.260;2024-01-10T09:05:12;101639.75;;;-2.08;50.48
26657;BME280;14279;50.010;8.260;2024-01-10T09:07:37;101651.84;;;-2.01;50.42
26657;BME280;14279;50.010;8.260;2024-01-10T09:10:03;101654.06;;;-2.13;50.62
26657;BME280;14279;50.010;8.260;2024-01-10T09:12:30;101644.31;;;-1.96;50.87
26657;BME280;14279;50.010;8.260;2024-01-10T09:14:56;101653.81;;;-1.90;50.61
26657;BME280;14279;50.010;8.260;2024-01-10T09:17:21;101646.91;;;-1.94;50.33
26657;BME280;14279;50.010;8.260;2024-01-10T09:19:46;101652.13;;;-1.90;50.38
26657;BME280;14279;50.010;8.260;2024-01-10T09:22:12;101646.41;;;-1.81;49.46
26657;BME280;14279;50.010;8.260;2024-01-10T09:24:38;101655.88;;;-1.77;50.06
26657;BME280;14279;50.010;8.260;2024-01-10T09:27:04;101664.38;;;-1.76;50.12
26657;BME280;14279;50.010;8.260;2024-01-10T09:29:29;101653.44;;;-1.72;49.85
26657;BME280;14279;50.010;8.260;2024-01-10T09:31:56;101657.16;;;-1.59;50.10
26657;BME280;14279;50.010;8.260;2024-01-10T09:34:21;101659.19;;;-1.79;49.47
26657;BME280;14279;50.010;8.260;2024-01-10T09:36:47;101661.72;;;-1.81;49.12
26657;BME280;14279;50.010;8.260;2024-01-10T09:39:12;101654.72;;;-1.88;49.50
26657;BME280;14279;50.010;8.260;2024-01-10T15:26:16;101612.09;;;-0.38;48.74
26657;BME280;14279;50.010;8.260;2024-01-10T15:28:43;101613.22;;;-0.22;48.56
26657;BME280;14279;50.010;8.260;2024-01-10T15:31:16;101607.97;;;-0.31;48.51
26657;BME280;14279;50.010;8.260;2024-01-10T15:33:42;101615.78;;;-0.22;48.73
26657;BME280;14279;50.010;8.260;2024-01-10T15:36:07;101623.59;;;-0.16;48.76
26657;BME280;14279;50.010;8.260;2024-01-10T15:38:34;101625.19;;;-0.21;48.85
26657;BME280;14279;50.010;8.260;2024-01-10T15:40:59;101631.34;;;-0.11;48.96
26657;BME280;14279;50.010;8.260;2024-01-10T15:43:26;101634.06;;;-0.03;49.26
26657;BME280;14279;50.010;8.260;2024-01-10T15:45:51;101637.22;;;-0.18;48.99
26657;BME280;14279;50.010;8.260;2024-01-10T15:48:17;101634.66;;;-0.18;49.10
26657;BME280;14279;50.010;8.260;2024-01-10T15:50:42;101639.75;;;-0.18;49.43
26657;BME280;14279;50.010;8.260;2024-01-10T15:53:07;101643.09;;;-0.21;49.46
26657;BME280;14279;50.010;8.260;2024-01-10T15:55:32;101641.38;;;-0.22;49.46
26657;BME280;14279;50.010;8.260;2024-01-10T15:57:59;101640.59;;;-0.19;49.76
26657;BME280;14279;50.010;8.260;2024-01-10T16:00:24;101644.91;;;-0.17;49.84
26657;BME280;14279;50.010;8.260;2024-01-10T16:02:50;101643.88;;;-0.26;49.73
26657;BME280;14279;50.010;8.260;2024-01-10T16:05:15;101639.56;;;-0.27;49.92
26657;BME280;14279;50.010;8.260;2024-01-10T16:07:42;101642.13;;;-0.27;49.88
26657;BME280;14279;50.010;8.260;2024-01-10T16:10:07;101646.22;;;-0.37;50.13
26657;BME280;14279;50.010;8.260;2024-01-10T16:12:33;101645.25;;;-0.42;50.35
26657;BME280;14279;50.010;8.260;2024-01-10T16:14:58;101643.53;;;-0.43;50.36
26657;BME280;14279;50.010;8.260;2024-01-10T16:17:23;101643.66;;;-0.36;50.32
26657;BME280;14279;50.010;8.260;2024-01-10T16:19:49;101646.09;;;-0.43;50.76
26657;BME280;14279;50.010;8.260;2024-01-10T16:22:14;101647.19;;;-0.32;50.79
26657;BME280;14279;50.010;8.260;2024-01-10T16:24:40;101647.94;;;-0.38;50.94
26657;BME280;14279;50.010;8.260;2024-01-10T16:27:05;101648.56;;;-0.47;50.76
26657;BME280;14279;50.010;8.260;2024-01-10T16:29:30;101649.66;;;-0.37;51.05
26657;BME280;14279;50.010;8.260;2024-01-10T16:31:56;101652.38;;;-0.27;50.77
26657;BME280;14279;50.010;8.260;2024-01-10T16:34:21;101659.09;;;-0.33;51.10
26657;BME280;14279;50.010;8.260;2024-01-10T16:36:46;101654.78;;;-0.37;50.88
26657;BME280;14279;50.010;8.260;2024-01-10T16:39:11;101657.47;;;-0.29;51.19
26657;BME280;14279;50.010;8.260;2024-01-10T16:41:37;101657.19;;;-0.43;51.07
26657;BME280;14279;50.010;8.260;2024-01-10T16:44:02;101667.38;;;-0.46;51.40
26657;BME280;14279;50.010;8.260;2024-01-10T16:46:27;101658.16;;;-0.38;51.31
26657;BME280;14279;50.010;8.260;2024-01-10T16:48:54;101659.63;;;-0.48;51.82
26657;BME280;14279;50.010;8.260;2024-01-10T16:51:19;101663.94;;;-0.47;51.55
26657;BME280;14279;50.010;8.260;2024-01-10T16:53:44;101654.66;;;-0.41;51.61
26657;BME280;14279;50.010;8.260;2024-01-10T16:56:10;101646.97;;;-0.41;51.43
26657;BME280;14279;50.010;8.260;2024-01-10T16:58:35;101648.72;;;-0.40;51.76
26657;BME280;14279;50.010;8.260;2024-01-10T17:01:00;101647.03;;;-0.40;51.74
26657;BME280;14279;50.010;8.260;2024-01-10T17:03:25;101660.38;;;-0.53;51.45
26657;BME280;14279;50.010;8.260;2024-01-10T17:05:51;101654.38;;;-0.55;51.62
26657;BME280;14279;50.010;8.260;2024-01-10T17:08:17;101660.47;;;-0.50;51.96
26657;BME280;14279;50.010;8.260;2024-01-10T17:10:42;101664.66;;;-0.52;51.58
26657;BME280;14279;50.010;8.260;2024-01-10T17:13:07;101662.19;;;-0.48;52.02
26657;BME280;14279;50.010;8.260;2024-01-10T17:15:32;101668.06;;;-0.53;51.65
26657;BME280;14279;50.010;8.260;2024-01-10T17:17:59;101667.97;;;-0.58;52.06
26657;BME280;14279;50.010;8.260;2024-01-10T17:20:25;101668.88;;;-0.54;52.25
26657;BME280;14279;50.010;8.260;2024-01-10T17:22:51;101669.69;;;-0.57;52.31
26657;BME280;14279;50.010;8.260;2024-01-10T17:25:18;101667.94;;;-0.59;52.26
26657;BME280;14279;50.010;8.260;2024-01-10T17:27:44;101672.88;;;-0.69;52.44
26657;BME280;14279;50.010;8.260;2024-01-10T17:30:10;101668.00;;;-0.56;52.52
26657;BME280;14279;50.010;8.260;2024-01-10T17:32:35;101668.13;;;-0.50;52.45
26657;BME280;14279;50.010;8.260;2024-01-10T17:35:01;101672.41;;;-0.49;52.53
26657;BME280;14279;50.010;8.260;2024-01-10T17:37:27;101673.16;;;-0.55;52.92
26657;BME280;14279;50.010;8.260;2024-01-10T17:39:53;101683.34;;;-0.56;53.23
26657;BME280;14279;50.010;8.260;2024-01-10T17:42:18;101672.25;;;-0.57;53.11
26657;BME280;14279;50.010;8.260;2024-01-10T17:44:43;101673.19;;;-0.53;53.04
26657;BME280;14279;50.010;8.260;2024-01-10T17:47:08;101669.66;;;-0.58;52.83
26657;BME280;14279;50.010;8.260;2024-01-10T17:49:36;101676.63;;;-0.51;53.00
26657;BME280;14279;50.010;8.260;2024-01-10T17:52:01;101680.78;;;-0.56;53.17
26657;BME280;14279;50.010;8.260;2024-01-10T17:54:26;101680.84;;;-0.53;53.23
26657;BME280;14279;50.010;8.260;2024-01-10T17:56:52;101682.50;;;-0.57;53.37
26657;BME280;14279;50.010;8.260;2024-01-10T17:59:17;101680.91;;;-0.52;53.39
26657;BME280;14279;50.010;8.260;2024-01-10T18:01:42;101683.47;;;-0.50;53.78
26657;BME280;14279;50.010;8.260;2024-01-10T18:04:07;101681.72;;;-0.53;53.41
26657;BME280;14279;50.010;8.260;2024-01-10T18:06:34;101683.13;;;-0.67;53.80
26657;BME280;14279;50.010;8.260;2024-01-10T18:08:59;101687.00;;;-0.85;53.91
26657;BME280;14279;50.010;8.260;2024-01-10T18:11:24;101678.56;;;-0.81;53.94
26657;BME280;14279;50.010;8.260;2024-01-10T18:13:49;101677.69;;;-0.81;54.09
26657;BME280;14279;50.010;8.260;2024-01-10T18:16:15;101683.72;;;-0.79;54.11
26657;BME280;14279;50.010;8.260;2024-01-10T18:18:40;101682.81;;;-0.81;54.02
26657;BME280;14279;50.010;8.260;2024-01-10T18:21:05;101690.72;;;-0.70;53.75
26657;BME280;14279;50.010;8.260;2024-01-10T18:23:31;101685.66;;;-0.67;54.14
26657;BME280;14279;50.010;8.260;2024-01-10T18:25:56;101688.44;;;-0.58;54.53